Time;durP1;ratioP1;P1;durP2;ratioP2;P2;SDS_P1;SDS_P2;PMS_P1;PMS_P2;Temp;Humidity;BMP_temperature;BMP_pressure;BME280_temperature;BME280_humidity;BME280_pressure;Samples;Min_cycle;Max_cycle;Signal;HPM_P1;HPM_P2
2022/02/25 00:01:10;;;;;;;8.33;2.83;;;;;;;;;;5032457;28;20024;-70
2022/02/25 00:03:35;;;;;;;4.05;2.38;;;;;;;;;;5031340;28;20263;-70
2022/02/25 00:06:00;;;;;;;10.90;1.38;;;;;;;;;;5044337;28;20424;-69
2022/02/25 00:08:25;;;;;;;1.90;1.02;;;;;;;;;;5032596;28;20029;-69
2022/02/25 00:10:51;;;;;;;8.35;2.67;;;;;;;;;;5031525;28;20068;-70
2022/02/25 00:13:16;;;;;;;8.20;2.42;;;;;;;;;;5030921;28;20029;-69
2022/02/25 00:15:41;;;;;;;7.30;1.40;;;;;;;;;;5031413;28;20040;-70
2022/02/25 00:18:06;;;;;;;7.90;2.72;;;;;;;;;;5032754;28;20021;-69
2022/02/25 00:20:32;;;;;;;2.30;1.20;;;;;;;;;;5031060;28;20390;-68
2022/02/25 00:22:57;;;;;;;5.70;1.80;;;;;;;;;;5030321;28;20290;-69
2022/02/25 00:25:22;;;;;;;2.63;1.30;;;;;;;;;;5031157;28;20021;-69
2022/02/25 00:27:47;;;;;;;7.13;1.90;;;;;;;;;;5028848;28;20045;-69
2022/02/25 00:30:13;;;;;;;6.03;2.40;;;;;;;;;;5030971;28;20029;-68
2022/02/25 00:32:38;;;;;;;9.07;2.10;;;;;;;;;;5030711;28;20112;-69
2022/02/25 00:35:04;;;;;;;10.63;2.22;;;;;;;;;;5034483;28;20111;-69
2022/02/25 00:37:29;;;;;;;4.97;1.75;;;;;;;;;;5029423;28;20672;-70
2022/02/25 00:39:54;;;;;;;8.98;1.75;;;;;;;;;;5029617;28;20025;-70
2022/02/25 00:42:20;;;;;;;11.57;2.50;;;;;;;;;;5030474;28;20025;-68
2022/02/25 00:44:45;;;;;;;1.95;1.15;;;;;;;;;;5030596;28;20025;-70
2022/02/25 00:47:10;;;;;;;7.57;1.38;;;;;;;;;;5030733;28;20025;-70
2022/02/25 00:49:36;;;;;;;16.75;2.95;;;;;;;;;;5030217;28;20340;-70
2022/02/25 00:52:01;;;;;;;5.93;1.45;;;;;;;;;;5030573;28;20017;-70
2022/02/25 00:54:27;;;;;;;7.78;2.00;;;;;;;;;;5030262;28;20018;-69
2022/02/25 00:56:52;;;;;;;10.90;2.10;;;;;;;;;;5030186;28;20029;-70
2022/02/25 00:59:17;;;;;;;3.42;1.15;;;;;;;;;;5029668;28;20025;-69
2022/02/25 01:01:42;;;;;;;20.33;2.30;;;;;;;;;;5024641;28;20044;-69
2022/02/25 01:04:08;;;;;;;20.85;2.60;;;;;;;;;;5029741;28;20363;-69
2022/02/25 01:06:33;;;;;;;10.57;1.60;;;;;;;;;;5027756;28;20029;-69
2022/02/25 01:08:58;;;;;;;12.43;1.80;;;;;;;;;;5029710;28;20071;-68
2022/02/25 01:11:23;;;;;;;5.00;1.40;;;;;;;;;;5031446;28;20478;-69
2022/02/25 01:13:49;;;;;;;9.48;1.90;;;;;;;;;;5035468;28;20307;-69
2022/02/25 01:16:14;;;;;;;9.13;1.60;;;;;;;;;;5030100;28;20029;-70
2022/02/25 01:18:39;;;;;;;11.98;1.90;;;;;;;;;;5026914;28;20033;-68
2022/02/25 01:21:06;;;;;;;5.57;1.48;;;;;;;;;;5026078;28;20036;-67
2022/02/25 01:23:32;;;;;;;4.82;1.10;;;;;;;;;;5030310;28;20022;-69
2022/02/25 01:25:57;;;;;;;6.97;1.67;;;;;;;;;;5028405;28;20017;-70
2022/02/25 01:28:22;;;;;;;9.85;2.47;;;;;;;;;;5029342;28;20159;-70
2022/02/25 01:30:47;;;;;;;7.00;1.83;;;;;;;;;;5029500;28;20139;-70
2022/02/25 01:33:12;;;;;;;5.80;1.75;;;;;;;;;;5029162;28;20041;-70
2022/02/25 01:35:38;;;;;;;2.92;0.77;;;;;;;;;;5029015;28;20449;-69
2022/02/25 01:38:03;;;;;;;3.67;1.42;;;;;;;;;;5028826;28;20024;-70
2022/02/25 01:40:29;;;;;;;8.30;1.80;;;;;;;;;;5029019;28;20022;-69
2022/02/25 01:42:54;;;;;;;7.88;1.98;;;;;;;;;;5029494;28;20021;-69
2022/02/25 01:45:20;;;;;;;10.18;2.20;;;;;;;;;;5029486;28;20028;-69
2022/02/25 01:47:45;;;;;;;10.13;2.20;;;;;;;;;;5029768;28;20020;-68
2022/02/25 01:50:11;;;;;;;6.65;1.80;;;;;;;;;;5029442;28;20026;-70
2022/02/25 01:52:37;;;;;;;8.10;1.80;;;;;;;;;;5029307;28;20445;-69
2022/02/25 01:55:03;;;;;;;10.65;2.08;;;;;;;;;;5029508;28;20033;-70
2022/02/25 01:57:28;;;;;;;10.73;1.80;;;;;;;;;;5028171;28;20030;-70
2022/02/25 01:59:54;;;;;;;6.55;1.60;;;;;;;;;;5014014;28;20029;-70
2022/02/25 02:02:19;;;;;;;10.35;1.60;;;;;;;;;;5031259;28;20076;-69
2022/02/25 02:04:44;;;;;;;5.00;1.17;;;;;;;;;;5042586;28;20009;-70
2022/02/25 02:07:09;;;;;;;8.07;1.48;;;;;;;;;;5045310;28;20025;-70
2022/02/25 02:09:35;;;;;;;8.80;1.60;;;;;;;;;;5033035;28;20516;-70
2022/02/25 02:12:00;;;;;;;8.15;1.80;;;;;;;;;;5033637;28;20029;-70
2022/02/25 02:14:25;;;;;;;13.73;1.83;;;;;;;;;;5031909;28;20028;-69
2022/02/25 02:16:51;;;;;;;17.63;2.17;;;;;;;;;;5031499;28;20017;-70
2022/02/25 02:19:17;;;;;;;7.15;1.17;;;;;;;;;;5032069;28;20396;-69
2022/02/25 02:21:44;;;;;;;9.32;1.88;;;;;;;;;;5031290;28;20021;-70
2022/02/25 02:24:10;;;;;;;14.38;3.53;;;;;;;;;;5047567;28;20060;-70
2022/02/25 02:26:35;;;;;;;12.25;1.98;;;;;;;;;;5036000;28;20041;-70
2022/02/25 02:29:00;;;;;;;12.98;2.13;;;;;;;;;;5032307;28;20067;-69
2022/02/25 02:31:25;;;;;;;15.30;2.17;;;;;;;;;;5032584;28;20079;-70
2022/02/25 02:33:51;;;;;;;11.50;2.55;;;;;;;;;;5032543;28;20100;-70
2022/02/25 02:36:17;;;;;;;12.23;2.35;;;;;;;;;;5038715;28;20026;-70
2022/02/25 02:38:42;;;;;;;5.55;1.75;;;;;;;;;;5032210;28;20026;-69
2022/02/25 02:41:08;;;;;;;12.82;2.45;;;;;;;;;;5032374;28;20025;-69
2022/02/25 02:43:34;;;;;;;12.38;2.47;;;;;;;;;;5031969;28;20017;-69
2022/02/25 02:45:59;;;;;;;17.08;2.35;;;;;;;;;;5032851;28;20425;-70
2022/02/25 02:48:24;;;;;;;6.55;2.25;;;;;;;;;;5032669;28;20025;-69
2022/02/25 02:50:50;;;;;;;14.15;2.42;;;;;;;;;;5032868;28;20545;-70
2022/02/25 02:53:15;;;;;;;18.67;2.85;;;;;;;;;;5031866;28;20363;-69
2022/02/25 02:55:44;;;;;;;7.78;1.70;;;;;;;;;;5033182;28;20027;-70
2022/02/25 02:58:09;;;;;;;12.30;2.10;;;;;;;;;;5029074;28;20048;-69
2022/02/25 03:00:35;;;;;;;9.27;1.85;;;;;;;;;;5029031;28;20371;-70
2022/02/25 03:03:00;;;;;;;13.00;2.63;;;;;;;;;;5031776;28;20020;-70
2022/02/25 03:05:25;;;;;;;12.90;3.45;;;;;;;;;;5032084;28;20025;-69
2022/02/25 03:07:51;;;;;;;12.43;2.58;;;;;;;;;;5032522;28;20021;-70
2022/02/25 03:10:17;;;;;;;7.95;1.60;;;;;;;;;;5031517;28;20549;-70
2022/02/25 03:12:42;;;;;;;9.32;2.75;;;;;;;;;;5031567;28;20028;-70
2022/02/25 03:15:08;;;;;;;4.15;1.40;;;;;;;;;;5032128;28;20040;-70
2022/02/25 03:17:33;;;;;;;9.18;1.58;;;;;;;;;;5031500;28;20052;-70
2022/02/25 03:19:59;;;;;;;19.80;2.95;;;;;;;;;;5030386;28;20022;-70
2022/02/25 03:22:25;;;;;;;10.13;3.45;;;;;;;;;;5030505;28;20021;-69
2022/02/25 03:24:51;;;;;;;14.45;2.28;;;;;;;;;;5032186;28;20466;-69
2022/02/25 03:27:16;;;;;;;8.43;1.67;;;;;;;;;;5031804;28;20043;-69
2022/02/25 03:29:41;;;;;;;14.60;2.10;;;;;;;;;;5031692;28;20025;-69
2022/02/25 03:32:06;;;;;;;9.97;1.90;;;;;;;;;;5031454;28;20037;-69
2022/02/25 03:34:31;;;;;;;15.02;2.75;;;;;;;;;;5025843;28;20315;-68
2022/02/25 03:36:57;;;;;;;10.82;2.03;;;;;;;;;;5031839;28;20095;-69
2022/02/25 03:39:22;;;;;;;11.30;1.53;;;;;;;;;;5030688;28;20025;-68
2022/02/25 03:41:47;;;;;;;8.47;2.43;;;;;;;;;;5031522;28;20267;-69
2022/02/25 03:44:12;;;;;;;8.40;1.75;;;;;;;;;;5029752;28;20267;-69
2022/02/25 03:46:37;;;;;;;6.90;1.77;;;;;;;;;;5031482;28;20033;-69
2022/02/25 03:49:02;;;;;;;8.77;2.30;;;;;;;;;;5031419;28;20271;-69
2022/02/25 03:51:29;;;;;;;15.10;2.40;;;;;;;;;;5031890;28;20260;-69
2022/02/25 03:53:54;;;;;;;6.18;1.73;;;;;;;;;;5030698;28;20276;-69
2022/02/25 03:56:19;;;;;;;10.38;3.30;;;;;;;;;;5031301;28;20044;-69
2022/02/25 03:58:44;;;;;;;17.75;3.42;;;;;;;;;;5030184;28;20044;-70
2022/02/25 04:01:10;;;;;;;14.00;1.93;;;;;;;;;;5031487;28;20020;-69
2022/02/25 04:03:35;;;;;;;7.53;1.75;;;;;;;;;;5031264;28;20291;-69
2022/02/25 04:06:01;;;;;;;4.45;1.48;;;;;;;;;;5031661;28;20025;-69
2022/02/25 04:08:26;;;;;;;16.42;1.70;;;;;;;;;;5031045;28;20048;-69
2022/02/25 04:10:51;;;;;;;12.10;1.95;;;;;;;;;;5034401;28;20032;-68
2022/02/25 04:13:17;;;;;;;9.55;2.33;;;;;;;;;;5024831;28;20108;-68
2022/02/25 04:15:43;;;;;;;3.80;1.20;;;;;;;;;;5030795;28;20028;-69
2022/02/25 04:18:10;;;;;;;18.83;2.35;;;;;;;;;;5032972;28;20025;-69
2022/02/25 04:20:35;;;;;;;13.48;2.55;;;;;;;;;;5030485;28;20025;-69
2022/02/25 04:23:00;;;;;;;18.50;2.80;;;;;;;;;;5034673;28;20021;-68
2022/02/25 04:25:25;;;;;;;12.10;2.63;;;;;;;;;;5030266;28;20266;-69
2022/02/25 04:27:50;;;;;;;8.00;1.60;;;;;;;;;;5030166;28;20637;-68
2022/02/25 04:30:15;;;;;;;8.90;2.15;;;;;;;;;;5034255;28;20364;-69
2022/02/25 04:32:41;;;;;;;9.50;4.18;;;;;;;;;;5030664;28;20033;-69
2022/02/25 04:35:06;;;;;;;12.83;1.80;;;;;;;;;;5030080;28;20057;-69
2022/02/25 04:37:31;;;;;;;14.70;2.38;;;;;;;;;;5030261;28;20974;-69
2022/02/25 04:39:56;;;;;;;13.77;2.03;;;;;;;;;;5029912;28;20028;-69
2022/02/25 04:42:22;;;;;;;8.18;2.05;;;;;;;;;;5029692;28;20054;-68
2022/02/25 04:44:47;;;;;;;2.90;0.90;;;;;;;;;;5029845;28;20076;-68
2022/02/25 04:47:12;;;;;;;4.85;1.75;;;;;;;;;;5030335;28;20029;-69
2022/02/25 04:49:38;;;;;;;12.07;1.87;;;;;;;;;;5029819;28;20040;-69
2022/02/25 04:52:03;;;;;;;8.70;1.63;;;;;;;;;;5023212;28;20268;-69
2022/02/25 04:54:29;;;;;;;6.65;1.60;;;;;;;;;;5030322;28;20371;-68
2022/02/25 04:56:54;;;;;;;16.20;2.50;;;;;;;;;;5030219;28;20079;-69
2022/02/25 04:59:19;;;;;;;6.85;1.13;;;;;;;;;;5029906;28;20061;-69
2022/02/25 05:01:46;;;;;;;12.48;2.65;;;;;;;;;;5028785;28;20021;-69
2022/02/25 05:04:11;;;;;;;7.28;1.50;;;;;;;;;;5040083;23;20444;-67
2022/02/25 05:06:36;;;;;;;5.15;1.45;;;;;;;;;;5008712;28;20072;-67
2022/02/25 05:09:02;;;;;;;4.63;1.20;;;;;;;;;;5003469;28;20052;-67
2022/02/25 05:11:27;;;;;;;15.30;1.92;;;;;;;;;;5009094;28;20038;-67
2022/02/25 05:13:52;;;;;;;4.35;0.93;;;;;;;;;;5011908;28;20014;-67
2022/02/25 05:21:46;;;;;;;8.07;2.55;;;;;;;;;;5029361;28;20480;-67
2022/02/25 05:24:11;;;;;;;3.55;1.00;;;;;;;;;;5028137;28;20029;-67
2022/02/25 05:26:36;;;;;;;10.77;1.83;;;;;;;;;;5029512;28;20028;-67
2022/02/25 05:29:01;;;;;;;10.43;2.58;;;;;;;;;;5016160;28;20033;-67
2022/02/25 05:31:26;;;;;;;2.55;0.68;;;;;;;;;;5029652;28;20037;-67
2022/02/25 05:33:53;;;;;;;5.20;1.40;;;;;;;;;;5029295;28;20071;-67
2022/02/25 05:36:19;;;;;;;2.83;0.77;;;;;;;;;;5037054;28;20112;-67
2022/02/25 05:38:48;;;;;;;3.13;0.57;;;;;;;;;;5029218;28;20029;-67
2022/02/25 05:41:14;;;;;;;2.33;0.82;;;;;;;;;;5015924;28;20056;-67
2022/02/25 05:43:39;;;;;;;4.38;0.90;;;;;;;;;;5026785;28;20053;-67
2022/02/25 05:46:04;;;;;;;4.78;0.85;;;;;;;;;;5025101;28;20033;-67
2022/02/25 05:48:29;;;;;;;12.95;1.92;;;;;;;;;;5015449;28;20026;-67
2022/02/25 05:50:54;;;;;;;8.40;1.58;;;;;;;;;;5029016;28;20492;-67
2022/02/25 05:53:19;;;;;;;7.18;1.58;;;;;;;;;;5030735;28;20340;-67
2022/02/25 05:55:45;;;;;;;12.77;1.85;;;;;;;;;;5019686;28;20029;-67
2022/02/25 05:58:10;;;;;;;19.77;2.58;;;;;;;;;;5027636;28;20504;-67
2022/02/25 06:00:35;;;;;;;10.43;2.17;;;;;;;;;;5028412;28;20014;-67
2022/02/25 06:03:00;;;;;;;6.88;1.88;;;;;;;;;;5021227;28;20366;-67
2022/02/25 06:05:26;;;;;;;8.48;2.17;;;;;;;;;;5022031;28;20061;-67
2022/02/25 06:07:51;;;;;;;6.18;1.73;;;;;;;;;;5026726;28;20017;-67
2022/02/25 06:10:16;;;;;;;7.57;1.98;;;;;;;;;;5031806;28;20026;-67
2022/02/25 06:12:42;;;;;;;3.67;0.70;;;;;;;;;;5020093;28;20088;-67
2022/02/25 06:15:08;;;;;;;6.25;2.15;;;;;;;;;;5026448;28;20025;-67
2022/02/25 06:17:33;;;;;;;19.52;3.20;;;;;;;;;;5026475;28;20021;-67
2022/02/25 06:19:58;;;;;;;9.52;1.13;;;;;;;;;;5031911;28;20067;-67
2022/02/25 06:22:23;;;;;;;9.88;1.83;;;;;;;;;;5032535;28;20473;-67
2022/02/25 06:24:48;;;;;;;7.53;1.45;;;;;;;;;;5019905;28;20248;-67
2022/02/25 06:27:14;;;;;;;3.20;0.93;;;;;;;;;;5021596;28;20017;-67
2022/02/25 06:29:39;;;;;;;7.35;1.30;;;;;;;;;;5014382;28;20494;-67
2022/02/25 06:32:04;;;;;;;8.80;1.58;;;;;;;;;;5025886;28;20358;-67
2022/02/25 06:34:30;;;;;;;2.88;0.95;;;;;;;;;;5025811;28;20470;-67
2022/02/25 06:36:55;;;;;;;8.07;1.65;;;;;;;;;;5019392;28;20037;-67
2022/02/25 06:39:20;;;;;;;6.50;0.77;;;;;;;;;;5029491;28;20022;-67
2022/02/25 06:41:46;;;;;;;2.13;1.00;;;;;;;;;;5031587;28;20021;-67
2022/02/25 06:44:11;;;;;;;8.95;1.17;;;;;;;;;;5030246;28;20454;-67
2022/02/25 06:46:36;;;;;;;12.18;1.85;;;;;;;;;;5029188;28;20111;-67
2022/02/25 06:49:02;;;;;;;16.92;2.28;;;;;;;;;;5020729;28;20421;-67
2022/02/25 06:51:29;;;;;;;18.70;2.60;;;;;;;;;;5031367;28;20064;-67
2022/02/25 06:53:55;;;;;;;25.77;2.75;;;;;;;;;;5022913;28;20029;-67
2022/02/25 06:56:20;;;;;;;10.35;0.77;;;;;;;;;;5027347;28;20022;-67
2022/02/25 06:58:45;;;;;;;15.85;1.35;;;;;;;;;;5031494;28;20040;-67
2022/02/25 07:01:10;;;;;;;2.95;1.45;;;;;;;;;;5030822;28;20473;-67
2022/02/25 07:03:35;;;;;;;11.05;2.25;;;;;;;;;;5016100;28;20030;-67
2022/02/25 07:06:02;;;;;;;8.93;1.75;;;;;;;;;;5015910;28;20021;-67
2022/02/25 07:08:27;;;;;;;8.20;1.60;;;;;;;;;;5018998;28;20543;-67
2022/02/25 07:10:53;;;;;;;19.77;1.55;;;;;;;;;;5029449;28;20017;-67
2022/02/25 07:13:19;;;;;;;11.55;1.08;;;;;;;;;;5015947;28;20080;-67
2022/02/25 07:15:45;;;;;;;9.45;1.27;;;;;;;;;;5026305;28;20088;-67
2022/02/25 07:18:10;;;;;;;5.97;2.13;;;;;;;;;;5028908;28;20458;-67
2022/02/25 07:20:36;;;;;;;6.07;1.88;;;;;;;;;;5026673;28;20018;-67
2022/02/25 07:23:02;;;;;;;20.65;2.70;;;;;;;;;;5023329;28;20060;-67
2022/02/25 07:25:27;;;;;;;18.77;1.85;;;;;;;;;;5031855;28;20426;-67
2022/02/25 07:27:53;;;;;;;4.28;1.75;;;;;;;;;;5032669;28;20036;-67
2022/02/25 07:30:18;;;;;;;4.78;1.00;;;;;;;;;;5035370;28;20092;-67
2022/02/25 07:32:44;;;;;;;5.32;2.70;;;;;;;;;;5029714;28;20029;-67
2022/02/25 07:35:11;;;;;;;4.90;1.35;;;;;;;;;;5025851;28;20017;-67
2022/02/25 07:37:36;;;;;;;1.85;0.60;;;;;;;;;;5028338;28;20025;-67
2022/02/25 07:40:02;;;;;;;10.63;1.70;;;;;;;;;;5029129;28;20349;-67
2022/02/25 07:42:27;;;;;;;13.52;1.45;;;;;;;;;;5029271;28;20082;-67
2022/02/25 07:44:52;;;;;;;23.48;3.88;;;;;;;;;;5026120;28;20049;-67
2022/02/25 07:47:19;;;;;;;4.40;1.98;;;;;;;;;;5035843;28;20029;-67
2022/02/25 07:49:45;;;;;;;14.57;1.88;;;;;;;;;;5016899;28;20484;-67
2022/02/25 07:52:10;;;;;;;3.28;1.27;;;;;;;;;;5023719;28;20021;-67
2022/02/25 07:54:36;;;;;;;21.95;2.85;;;;;;;;;;5030280;28;20025;-67
2022/02/25 07:57:01;;;;;;;18.73;2.28;;;;;;;;;;5029056;28;20112;-67
2022/02/25 07:59:26;;;;;;;16.13;2.80;;;;;;;;;;5028803;28;20490;-67
2022/02/25 08:01:51;;;;;;;15.73;2.78;;;;;;;;;;5029832;28;20092;-67
2022/02/25 08:04:17;;;;;;;20.95;2.58;;;;;;;;;;5030416;28;20049;-67
2022/02/25 08:06:44;;;;;;;21.57;2.53;;;;;;;;;;5025892;28;20022;-67
2022/02/25 08:09:09;;;;;;;12.23;1.92;;;;;;;;;;5028983;28;20732;-67
2022/02/25 08:11:35;;;;;;;16.85;1.80;;;;;;;;;;5027607;28;20075;-66
2022/02/25 08:14:00;;;;;;;14.20;2.15;;;;;;;;;;5025060;28;20478;-66
2022/02/25 08:16:25;;;;;;;15.88;2.03;;;;;;;;;;5030346;28;20492;-67
2022/02/25 08:18:51;;;;;;;22.53;2.83;;;;;;;;;;5026170;28;20033;-67
2022/02/25 08:21:16;;;;;;;18.20;2.30;;;;;;;;;;5022230;28;20287;-66
2022/02/25 08:23:41;;;;;;;12.75;1.85;;;;;;;;;;5025719;28;20022;-67
2022/02/25 08:26:06;;;;;;;21.73;2.77;;;;;;;;;;5029251;28;20109;-66
2022/02/25 08:28:31;;;;;;;17.92;2.78;;;;;;;;;;5026975;28;20278;-66
2022/02/25 08:30:56;;;;;;;23.13;1.97;;;;;;;;;;5017809;28;20026;-66
2022/02/25 08:33:22;;;;;;;25.48;2.67;;;;;;;;;;5022833;28;20620;-67
2022/02/25 08:35:47;;;;;;;5.13;1.25;;;;;;;;;;5038637;28;20063;-67
2022/02/25 08:38:12;;;;;;;14.00;2.40;;;;;;;;;;5022067;28;20032;-67
2022/02/25 08:40:38;;;;;;;26.50;3.35;;;;;;;;;;5019583;28;20064;-66
2022/02/25 08:43:03;;;;;;;22.05;2.30;;;;;;;;;;5018215;28;20013;-66
2022/02/25 08:45:29;;;;;;;12.82;2.35;;;;;;;;;;5011951;28;20022;-67
2022/02/25 08:47:54;;;;;;;6.85;1.23;;;;;;;;;;5019067;28;20125;-67
2022/02/25 08:50:20;;;;;;;14.70;2.22;;;;;;;;;;5015095;28;20030;-67
2022/02/25 08:52:46;;;;;;;27.13;2.90;;;;;;;;;;5025036;28;20009;-66
2022/02/25 08:55:12;;;;;;;12.27;1.90;;;;;;;;;;5044744;28;20020;-66
2022/02/25 08:57:37;;;;;;;19.63;3.95;;;;;;;;;;5030396;28;20028;-66
2022/02/25 09:00:11;;;;;;;9.07;2.50;;;;;;;;;;5011860;28;20415;-67
2022/02/25 09:02:36;;;;;;;4.25;1.88;;;;;;;;;;5016700;28;20046;-67
2022/02/25 09:05:02;;;;;;;23.38;3.20;;;;;;;;;;5015262;28;20131;-67
2022/02/25 09:07:28;;;;;;;12.10;3.70;;;;;;;;;;5011558;28;20578;-67
2022/02/25 09:09:53;;;;;;;8.60;1.35;;;;;;;;;;5020407;28;20108;-67
2022/02/25 09:12:18;;;;;;;13.35;1.90;;;;;;;;;;5011085;28;20025;-67
2022/02/25 09:14:44;;;;;;;14.77;1.90;;;;;;;;;;5021308;28;20054;-67
2022/02/25 09:17:09;;;;;;;11.40;3.22;;;;;;;;;;5021485;28;20481;-67
2022/02/25 09:19:34;;;;;;;18.52;2.78;;;;;;;;;;5014480;28;20026;-67
2022/02/25 09:22:00;;;;;;;9.50;1.25;;;;;;;;;;5011580;28;20057;-67
2022/02/25 09:24:25;;;;;;;15.45;2.38;;;;;;;;;;5012412;28;20114;-67
2022/02/25 09:26:50;;;;;;;21.57;3.20;;;;;;;;;;5024549;28;20018;-67
2022/02/25 09:29:15;;;;;;;28.23;4.28;;;;;;;;;;5012675;28;20279;-67
2022/02/25 09:31:40;;;;;;;20.70;2.90;;;;;;;;;;5013910;28;20024;-67
2022/02/25 09:34:06;;;;;;;10.00;2.30;;;;;;;;;;5011476;28;20033;-67
2022/02/25 09:36:31;;;;;;;15.95;2.35;;;;;;;;;;5020766;28;20025;-67
2022/02/25 09:38:56;;;;;;;27.02;5.10;;;;;;;;;;5028920;28;20111;-67
2022/02/25 09:41:22;;;;;;;17.13;4.18;;;;;;;;;;5020993;28;20028;-67
2022/02/25 09:43:47;;;;;;;23.52;3.95;;;;;;;;;;5015877;28;20434;-67
2022/02/25 09:46:12;;;;;;;20.83;3.15;;;;;;;;;;5025636;28;20036;-67
2022/02/25 09:48:38;;;;;;;30.52;5.15;;;;;;;;;;5020769;28;20474;-67
2022/02/25 09:51:03;;;;;;;13.90;2.47;;;;;;;;;;5015630;28;20382;-66
2022/02/25 09:53:29;;;;;;;21.13;4.30;;;;;;;;;;5019708;28;20021;-66
2022/02/25 09:55:54;;;;;;;19.40;5.03;;;;;;;;;;5019791;28;20025;-67
2022/02/25 09:58:19;;;;;;;21.88;4.88;;;;;;;;;;5021375;28;20419;-66
2022/02/25 10:00:45;;;;;;;9.70;2.53;;;;;;;;;;5025180;28;20112;-66
2022/02/25 10:03:11;;;;;;;18.08;2.72;;;;;;;;;;5026723;28;20013;-66
2022/02/25 10:05:37;;;;;;;16.58;3.60;;;;;;;;;;5024144;28;20378;-66
2022/02/25 10:08:12;;;;;;;24.38;5.32;;;;;;;;;;5022188;28;20028;-66
2022/02/25 10:10:41;;;;;;;15.35;3.53;;;;;;;;;;5016633;28;20046;-65
2022/02/25 10:13:06;;;;;;;30.75;5.43;;;;;;;;;;5014048;28;20026;-66
2022/02/25 10:15:33;;;;;;;18.35;4.20;;;;;;;;;;5024041;28;20418;-66
2022/02/25 10:18:03;;;;;;;17.48;3.28;;;;;;;;;;5026235;28;20021;-66
2022/02/25 10:20:28;;;;;;;18.80;4.10;;;;;;;;;;5026761;28;20191;-66
2022/02/25 10:22:53;;;;;;;12.15;2.10;;;;;;;;;;5023661;28;20108;-66
2022/02/25 10:25:21;;;;;;;24.95;4.20;;;;;;;;;;5029137;28;20462;-66
2022/02/25 10:27:46;;;;;;;12.07;2.78;;;;;;;;;;5028379;28;20406;-66
2022/02/25 10:30:13;;;;;;;22.80;4.35;;;;;;;;;;5014345;28;20030;-66
2022/02/25 10:32:38;;;;;;;15.20;3.25;;;;;;;;;;5026672;28;20413;-66
2022/02/25 10:35:18;;;;;;;29.67;5.30;;;;;;;;;;5029489;28;20108;-66
2022/02/25 10:38:06;;;;;;;29.27;5.03;;;;;;;;;;5028516;28;20088;-65
2022/02/25 10:40:36;;;;;;;17.45;4.03;;;;;;;;;;5015645;28;20567;-65
2022/02/25 10:43:02;;;;;;;12.23;4.10;;;;;;;;;;5026040;28;20032;-66
2022/02/25 10:45:28;;;;;;;23.90;5.07;;;;;;;;;;5030103;28;20287;-65
2022/02/25 10:47:58;;;;;;;25.92;5.75;;;;;;;;;;5026891;28;20051;-65
2022/02/25 10:50:25;;;;;;;24.48;7.10;;;;;;;;;;5020742;28;20367;-65
2022/02/25 10:52:52;;;;;;;26.30;6.50;;;;;;;;;;5030127;28;20021;-65
2022/02/25 10:55:19;;;;;;;22.38;4.78;;;;;;;;;;5030312;28;20109;-65
2022/02/25 10:57:44;;;;;;;31.35;5.15;;;;;;;;;;5027629;28;20478;-65
2022/02/25 11:00:11;;;;;;;35.38;6.57;;;;;;;;;;5022233;28;20036;-66
2022/02/25 11:02:38;;;;;;;27.10;4.38;;;;;;;;;;5028990;28;20025;-65
2022/02/25 11:05:15;;;;;;;32.50;4.90;;;;;;;;;;5033205;28;20025;-66
2022/02/25 11:07:44;;;;;;;24.80;4.03;;;;;;;;;;5028502;28;20021;-66
2022/02/25 11:10:10;;;;;;;24.30;3.55;;;;;;;;;;5025717;28;20414;-66
2022/02/25 11:12:37;;;;;;;20.25;4.95;;;;;;;;;;5034000;28;20048;-66
2022/02/25 11:15:04;;;;;;;24.33;4.75;;;;;;;;;;5032287;28;20399;-66
2022/02/25 11:17:29;;;;;;;30.85;4.68;;;;;;;;;;5037361;28;20357;-66
2022/02/25 11:19:56;;;;;;;22.65;4.28;;;;;;;;;;5029686;28;20021;-66
2022/02/25 11:22:21;;;;;;;31.15;4.78;;;;;;;;;;5030714;28;20136;-66
2022/02/25 11:24:48;;;;;;;21.77;4.22;;;;;;;;;;5029444;28;20092;-66
2022/02/25 11:27:14;;;;;;;21.60;5.18;;;;;;;;;;5029649;28;20104;-66
2022/02/25 11:29:48;;;;;;;29.48;5.35;;;;;;;;;;5030360;28;20079;-66
2022/02/25 11:32:14;;;;;;;29.20;4.65;;;;;;;;;;5019493;28;20478;-66
2022/02/25 11:34:40;;;;;;;25.05;4.28;;;;;;;;;;5023747;28;20026;-66
2022/02/25 11:37:05;;;;;;;22.27;3.90;;;;;;;;;;5024587;28;20032;-66
2022/02/25 11:39:31;;;;;;;14.13;4.15;;;;;;;;;;5015123;28;20384;-66
2022/02/25 11:41:58;;;;;;;23.52;4.13;;;;;;;;;;5017095;28;20504;-66
2022/02/25 11:44:24;;;;;;;19.35;3.25;;;;;;;;;;5026496;28;20022;-66
2022/02/25 11:46:50;;;;;;;18.10;4.00;;;;;;;;;;5013452;28;20366;-66
2022/02/25 11:49:15;;;;;;;14.13;2.08;;;;;;;;;;5016744;28;20036;-66
2022/02/25 11:51:52;;;;;;;24.60;3.33;;;;;;;;;;5017485;28;20030;-66
2022/02/25 11:54:18;;;;;;;18.17;3.15;;;;;;;;;;5027785;28;20759;-66
2022/02/25 11:56:43;;;;;;;10.40;2.63;;;;;;;;;;5012429;28;20046;-66
2022/02/25 11:59:08;;;;;;;14.15;2.95;;;;;;;;;;5023679;28;20875;-66
2022/02/25 12:01:33;;;;;;;19.85;4.45;;;;;;;;;;5020796;28;20018;-66
2022/02/25 12:03:59;;;;;;;22.25;3.40;;;;;;;;;;5019218;28;20022;-66
2022/02/25 12:06:27;;;;;;;19.40;4.43;;;;;;;;;;5020336;28;20026;-66
2022/02/25 12:08:57;;;;;;;21.55;3.85;;;;;;;;;;5017479;28;20780;-66
2022/02/25 12:11:34;;;;;;;27.33;4.13;;;;;;;;;;5023002;28;20079;-66
2022/02/25 12:14:00;;;;;;;12.20;2.70;;;;;;;;;;5018653;28;20129;-66
2022/02/25 12:16:26;;;;;;;14.60;2.83;;;;;;;;;;5019407;28;20053;-66
2022/02/25 12:18:51;;;;;;;26.95;3.75;;;;;;;;;;5020264;28;20053;-66
2022/02/25 12:21:16;;;;;;;6.53;2.27;;;;;;;;;;5019290;28;20057;-66
2022/02/25 12:23:49;;;;;;;14.60;2.20;;;;;;;;;;5022203;28;20253;-66
2022/02/25 12:26:14;;;;;;;21.40;3.38;;;;;;;;;;5017158;28;20065;-66
2022/02/25 12:28:41;;;;;;;17.13;2.97;;;;;;;;;;5020066;28;20014;-66
2022/02/25 12:31:07;;;;;;;22.92;4.20;;;;;;;;;;5017472;28;20482;-67
2022/02/25 12:33:45;;;;;;;16.77;3.95;;;;;;;;;;5023546;28;20056;-66
2022/02/25 12:36:13;;;;;;;12.90;2.47;;;;;;;;;;5025033;28;20032;-66
2022/02/25 12:38:42;;;;;;;25.80;3.63;;;;;;;;;;5018183;28;20028;-66
2022/02/25 12:41:21;;;;;;;20.13;3.88;;;;;;;;;;5024450;28;20075;-66
2022/02/25 12:43:47;;;;;;;32.20;4.30;;;;;;;;;;5024710;28;20045;-66
2022/02/25 12:46:13;;;;;;;22.48;4.40;;;;;;;;;;5019080;28;20014;-66
2022/02/25 12:48:39;;;;;;;8.23;2.45;;;;;;;;;;5019908;28;20071;-66
2022/02/25 12:51:04;;;;;;;19.55;3.33;;;;;;;;;;5015855;28;20391;-66
2022/02/25 12:53:29;;;;;;;20.20;3.07;;;;;;;;;;5018427;28;20448;-66
2022/02/25 12:55:55;;;;;;;17.98;4.05;;;;;;;;;;5020309;28;20351;-66
2022/02/25 12:58:30;;;;;;;18.38;4.05;;;;;;;;;;5019040;28;20032;-66
2022/02/25 13:00:56;;;;;;;30.98;5.63;;;;;;;;;;5015134;28;20105;-66
2022/02/25 13:03:21;;;;;;;19.13;4.28;;;;;;;;;;5020420;28;20097;-66
2022/02/25 13:05:53;;;;;;;21.45;5.53;;;;;;;;;;5022718;28;20022;-66
2022/02/25 13:08:18;;;;;;;23.60;5.28;;;;;;;;;;5025700;28;20048;-66
2022/02/25 13:10:44;;;;;;;26.83;3.75;;;;;;;;;;5028513;28;20018;-67
2022/02/25 13:13:09;;;;;;;20.58;3.97;;;;;;;;;;5020105;28;20083;-66
2022/02/25 13:15:34;;;;;;;19.05;5.28;;;;;;;;;;5022824;28;20048;-66
2022/02/25 13:18:00;;;;;;;19.38;4.43;;;;;;;;;;5038744;28;20021;-66
2022/02/25 13:20:25;;;;;;;22.05;5.10;;;;;;;;;;5014561;28;20115;-66
2022/02/25 13:22:50;;;;;;;19.50;4.38;;;;;;;;;;5010535;28;20140;-66
2022/02/25 13:25:17;;;;;;;32.00;4.90;;;;;;;;;;5023576;28;20049;-66
2022/02/25 13:27:44;;;;;;;18.08;5.40;;;;;;;;;;5029948;28;20018;-66
2022/02/25 13:30:09;;;;;;;41.08;5.72;;;;;;;;;;5030202;28;20036;-66
2022/02/25 13:32:35;;;;;;;15.32;3.72;;;;;;;;;;5017995;28;20025;-66
2022/02/25 13:35:00;;;;;;;14.95;4.43;;;;;;;;;;5019770;28;20030;-66
2022/02/25 13:37:25;;;;;;;16.05;3.90;;;;;;;;;;5018188;28;20104;-66
2022/02/25 13:39:51;;;;;;;11.68;2.67;;;;;;;;;;5013179;28;20045;-66
2022/02/25 13:42:30;;;;;;;11.07;2.80;;;;;;;;;;5021757;28;20021;-66
2022/02/25 13:44:55;;;;;;;18.55;2.97;;;;;;;;;;5022712;28;20017;-66
2022/02/25 13:52:55;;;;;;;8.52;2.35;;;;;;;;;;5029785;28;20038;-66
2022/02/25 13:55:21;;;;;;;16.15;2.58;;;;;;;;;;5025769;28;20136;-66
2022/02/25 13:57:46;;;;;;;11.73;2.95;;;;;;;;;;5027932;28;20514;-66
2022/02/25 14:00:22;;;;;;;17.57;3.50;;;;;;;;;;5027619;28;20029;-66
2022/02/25 14:02:49;;;;;;;18.13;3.72;;;;;;;;;;5019149;28;20777;-66
2022/02/25 14:05:16;;;;;;;11.27;1.88;;;;;;;;;;5018672;28;20534;-66
2022/02/25 14:07:45;;;;;;;12.43;2.10;;;;;;;;;;5026503;28;20021;-66
2022/02/25 14:10:25;;;;;;;11.18;2.35;;;;;;;;;;5026821;28;20039;-66
2022/02/25 14:12:51;;;;;;;10.82;2.47;;;;;;;;;;5018003;28;20026;-66
2022/02/25 14:15:17;;;;;;;12.05;1.77;;;;;;;;;;5024148;28;20043;-66
2022/02/25 14:17:43;;;;;;;14.25;1.60;;;;;;;;;;5028235;28;20059;-66
2022/02/25 14:20:11;;;;;;;16.45;1.40;;;;;;;;;;5025228;28;20032;-66
2022/02/25 14:22:43;;;;;;;6.90;1.40;;;;;;;;;;5028301;28;20100;-66
2022/02/25 14:25:14;;;;;;;12.05;1.63;;;;;;;;;;5025431;28;20025;-67
2022/02/25 14:27:58;;;;;;;11.35;2.00;;;;;;;;;;5030922;28;20432;-67
2022/02/25 14:30:24;;;;;;;11.45;1.63;;;;;;;;;;5020542;28;20030;-67
2022/02/25 14:32:51;;;;;;;11.48;2.22;;;;;;;;;;5019261;28;20026;-66
2022/02/25 14:35:20;;;;;;;13.77;2.00;;;;;;;;;;5023020;28;20026;-67
2022/02/25 14:37:45;;;;;;;13.73;2.25;;;;;;;;;;5022286;28;20025;-67